Wheathampstead, United Kingdom
Current Conditions -  °F | °C
As of 2:20 AM on Sunday 23 Nov 2014 (Local Time) from EGGW Reporting Station
Drizzle Drizzle  
Wind Chill: 52°   Ceiling: Unl
Heat Index: 52°   Visibility: 3mi
Dew Point: 50°   Wind: 7mph
Humidity: 94%   Direction: 350°N
Pressure: 29.94"   Gusts: NA
Location:  51.81°N, 0.29°W
Report Text: EGGW 230220Z 35006KT 5000 DZ SCT034 11/10 Q1014
Loading
Personal Weather Stations






























Interactive Weather Map New forecast layout! Learn more

10-Day Weather Forecast

Advertisements
Track Severe Weather on mobile